Accueil
METAR-TAF:

METAR-TAF

Aéroports :

Aéroport international de Bergame-Orio al Serio (Le Caravage)

Bergame, Italie

latitude: 45-40N, longitude: 009-42E, altitude: 238 m

Observation

Le bulletin a été fait il y a 32 minutes, à 20:50 UTC
Vent 3 kt de direction variable
Température 15°C
Humidité 82%
Pression 1015 hPa
Visibilité 10 km ou plus
Quelques nuages à une hauteur de 9000 ft

METAR: LIME 222050Z VRB03KT 9999 FEW090 15/12 Q1015 NOSIG

Heure: 23:22 (21:22 UTC)

Prévision

Le bulletin a été fait il y a 4 heures et 22 minutes, à 17:00 UTC
Prévision valable du 22 à 18 UTC au 23 à 18 UTC
Vent 5 kt de direction variable
Visibilité 10 km ou plus
Nuages épars à une hauteur de 5000 ft
Temporairement
du 22 à 18 UTC au 22 à 24 UTC
averses de pluie
Temporairement
du 23 à 08 UTC au 23 à 15 UTC
Visibilité: 4000 m
orage, pluie,

TAF: LIME 221700Z 2218/2318 VRB05KT 9999 SCT050 TEMPO 2218/2224 SHRA TEMPO 2308/2315 4000 TSRA

Observations et prévisions météorologiques de plus de 4000 aéroports (messages METAR et TAF).

Les stations disponibles sont représentées par des disques jaunes et rouges sur la carte.

Passer la souris dessus pour voir le nom de la station.

Cliquer dessus pour voir les observations et prévisions météorologiques.

Pour changer de carte: cliquez sur les boutons verts avec une croix noire pour zoomer, sur le bouton vert avec un tiret pour effectuer un zoom arrière, ou sur les flèches vertes pour les cartes adjacentes.


METAR-TAF: